• Join FlightAware (Why Join?)
  • Login
  • US Flag 
05:57AM EST


 

Airport Tracker/Info


-or-


 

Live Flight TrackerFlight Track Log ✈ N2834L ✈ 05-Jul-2013 ✈ KGFL - KHWV

Flight Track Log - Related Links

Times and Time Zones

All times are in EDT time to prevent confusion due to time zone crossing. See the N2834L flight status page for this flight to view local times or setup timezone preferences in your user account.

Time Position Orientation Groundspeed Altitude Reporting Facility
EDT Latitude Longitude Course Direction KTS MPH feet Rate Location/Type
04:14PM 42.9925 -73.3853 167° South 84 97 3,500  Level Boston Center
04:15PM 42.9717 -73.3794 168° South 88 101 3,600 60 Climbing Boston Center
04:16PM 42.9447 -73.3789 179° South 90 104 3,700  Climbing Boston Center
04:17PM 42.9217 -73.3728 169° South 90 104 3,600 -120 Descending Boston Center
04:18PM 42.8928 -73.3667 171° South 101 116 3,500  Descending Boston Center
04:19PM 42.7318 -73.4248 167° South  Level Estimated
04:19PM 42.8697 -73.3581 165° South 91 105 3,600  Level Boston Center
04:20PM 42.8511 -73.3350 138° Southeast 88 101 3,900 180 Climbing Boston Center
04:21PM 42.8328 -73.3064 131° Southeast 94 108 4,000 60 Climbing Boston Center
04:22PM 42.8122 -73.2750 132° Southeast 102 117 4,100  Climbing Boston Center
04:23PM 42.7914 -73.2464 135° Southeast 108 124 4,000 -60 Descending Boston Center
04:24PM 42.7644 -73.2375 166° South 105 121 4,000  Level Boston Center
04:25PM 42.7372 -73.2344 175° South 100 115 4,000  Level Boston Center
04:26PM 42.7083 -73.2283 171° South 101 116 4,000 -60 Level Boston Center
04:27PM 42.6811 -73.2281 180° South 102 117 3,900 -60 Descending Boston Center
04:28PM 42.6478 -73.2247 176° South 100 115 3,900  Level Boston Center
04:29PM 42.6228 -73.2131 161° South 97 112 4,000 60 Climbing Boston Center
04:30PM 42.5958 -73.2100 175° South 99 114 4,100  Climbing Boston Center
04:31PM 42.5689 -73.1956 158° South 103 119 4,000 -120 Descending Boston Center
04:32PM 42.5417 -73.1811 159° South 102 117 3,900  Descending Boston Center
04:33PM 42.5169 -73.1583 146° Southeast 102 117 4,000  Climbing Boston Center
04:34PM 42.4919 -73.1383 149° Southeast 103 119 4,000  Level Boston Center
04:35PM 42.4567 -73.1239 163° South 100 115 4,000 -60 Level Boston Center
04:36PM 42.4317 -73.1153 166° South 98 113 3,900 -60 Descending Boston Center
04:37PM 42.4089 -73.1122 174° South 98 113 3,900  Level Boston Center
04:38PM 42.3797 -73.1061 171° South 96 110 4,000  Climbing Boston Center
04:39PM 42.3547 -73.1058 180° South 94 108 3,900 -120 Descending Boston Center
04:41PM 42.3106 -73.0988 173° South  Level Estimated
04:48PM 42.1067 -73.0664 173° South  Level Estimated
04:49PM 42.0776 -73.0618 173° South  Level Estimated
04:50PM 42.0485 -73.0572 173° South  Level Estimated
04:51PM 42.0194 -73.0526 173° South  Level Estimated
04:52PM 41.9902 -73.0480 173° South  Level Estimated
04:53PM 41.9611 -73.0434 173° South  Level Estimated
04:54PM 41.9320 -73.0388 173° South  Level Estimated
04:55PM 41.9029 -73.0342 173° South  Level Estimated
04:56PM 41.8738 -73.0296 173° South  Level Estimated
04:57PM 41.8446 -73.0250 173° South  Level Estimated
04:58PM 41.8155 -73.0205 173° South  Level Estimated
04:59PM 41.7864 -73.0159 173° South  Level Estimated
05:00PM 41.7573 -73.0113 173° South  Level Estimated
05:01PM 41.7282 -73.0068 173° South  Level Estimated
05:02PM 41.6990 -73.0022 173° South  Level Estimated
05:03PM 41.6699 -72.9977 173° South  Level Estimated
05:04PM 41.6408 -72.9931 173° South  Level Estimated
05:05PM 41.6117 -72.9886 173° South  Level Estimated
05:06PM 41.5826 -72.9840 173° South  Level Estimated
05:07PM 41.5534 -72.9795 173° South  Level Estimated
05:08PM 41.5243 -72.9750 173° South  Level Estimated
05:09PM 41.4952 -72.9704 173° South  Level Estimated
05:10PM 41.4661 -72.9659 173° South  Level Estimated
05:11PM 41.4369 -72.9614 173° South  Level Estimated
05:12PM 41.4078 -72.9569 173° South  Level Estimated
05:13PM 41.3787 -72.9524 173° South  Level Estimated
05:14PM 41.3495 -72.9479 173° South  Level Estimated
05:15PM 41.3204 -72.9434 173° South  Level Estimated
05:16PM 41.2913 -72.9389 173° South  Level Estimated
05:17PM 41.2621 -72.9344 173° South  Level Estimated
05:18PM 41.2330 -72.9299 173° South  Level Estimated
05:19PM 41.2039 -72.9254 173° South  Level Estimated
05:20PM 41.1748 -72.9209 173° South  Level Estimated
05:21PM 41.1456 -72.9164 173° South  Level Estimated
05:22PM 41.1165 -72.9119 173° South  Level Estimated
05:23PM 41.0874 -72.9075 173° South  Level Estimated
05:24PM 41.0582 -72.9030 173° South  Level Estimated
05:25PM 41.0291 -72.8986 173° South  Level Estimated
05:26PM 41.0000 -72.8941 173° South  Level Estimated
05:27PM 40.9709 -72.8896 173° South  Level Estimated
05:28PM 40.9417 -72.8852 173° South  Level Estimated
05:29PM 40.9126 -72.8807 173° South  Level Estimated
05:30PM 40.8835 -72.8763 173° South  Level Estimated
05:31PM 40.8543 -72.8718 173° South  Level Estimated
05:32PM 40.8252 -72.8674 173° South  Level Estimated
05:33PM 40.8219 -72.8669 173° South  Level Estimated
05:34PM 40.8219 -72.8669 30° Northeast  Level Estimated
05:35PM 40.8219 -72.8669 30° Northeast  Level Estimated
05:36PM 40.8219 -72.8669 30° Northeast  Level Estimated
05:37PM 40.8219 -72.8669 30° Northeast  Level Estimated
05:38PM 40.8219 -72.8669 30° Northeast  Level Estimated
05:39PM 40.8219 -72.8669 30° Northeast  Level Estimated
05:40PM 40.8219 -72.8669 30° Northeast  Level Estimated
05:41PM 40.8219 -72.8669 30° Northeast  Level Estimated
05:42PM 40.8219 -72.8669 30° Northeast  Level Estimated
05:43PM 40.8219 -72.8669 30° Northeast  Level Estimated
05:44PM 40.8219 -72.8669 30° Northeast  Level Estimated
05:45PM 40.8219 -72.8669 30° Northeast  Level Estimated
05:46PM 40.8219 -72.8669 30° Northeast  Level Estimated
05:47PM 40.8219 -72.8669 30° Northeast  Level Estimated
05:48PM 40.8219 -72.8669 30° Northeast  Level Estimated
05:49PM 40.8219 -72.8669 30° Northeast  Level Estimated
05:50PM 40.8219 -72.8669 30° Northeast  Level Estimated
05:51PM 40.8219 -72.8669 30° Northeast  Level Estimated
05:52PM 40.8219 -72.8669 30° Northeast  Level Estimated
05:53PM 40.8219 -72.8669 30° Northeast  Level Estimated
05:54PM 40.8219 -72.8669 30° Northeast  Level Estimated
05:55PM 40.8219 -72.8669 30° Northeast  Level Estimated
05:56PM 40.8219 -72.8669 30° Northeast  Level Estimated
05:57PM 40.8219 -72.8669 30° Northeast  Level Estimated
05:58PM 40.8219 -72.8669 30° Northeast  Level Estimated
05:59PM 40.8219 -72.8669 30° Northeast  Level Estimated
06:00PM 40.8219 -72.8669 30° Northeast  Level Estimated
06:01PM 40.8219 -72.8669 30° Northeast  Level Estimated
06:02PM 40.8219 -72.8669 30° Northeast  Level Estimated
06:03PM 40.8219 -72.8669 30° Northeast  Level Estimated
06:04PM 40.8219 -72.8669 30° Northeast  Level Estimated
06:05PM 40.8219 -72.8669 30° Northeast  Level Estimated
06:06PM 40.8219 -72.8669 30° Northeast  Level Estimated
06:07PM 40.8219 -72.8669 30° Northeast  Level Estimated
06:08PM 40.8219 -72.8669 30° Northeast  Level Estimated
06:09PM 40.8219 -72.8669 30° Northeast  Level Estimated
06:10PM 40.8219 -72.8669 30° Northeast  Level Estimated
06:11PM 40.8219 -72.8669 30° Northeast  Level Estimated
06:12PM 40.8219 -72.8669 30° Northeast  Level Estimated
06:13PM 40.8219 -72.8669 30° Northeast  Level Estimated
06:14PM 40.8219 -72.8669 30° Northeast  Level Estimated
06:15PM 40.8219 -72.8669 30° Northeast  Level Estimated
06:16PM 40.8219 -72.8669 30° Northeast  Level Estimated
06:17PM 40.8219 -72.8669 30° Northeast  Level Estimated
06:18PM 40.8219 -72.8669 30° Northeast  Level Estimated
06:19PM 40.8219 -72.8669 30° Northeast  Level Estimated
06:20PM 40.8219 -72.8669 30° Northeast  Level Estimated
06:21PM 40.8219 -72.8669 30° Northeast  Level Estimated
06:22PM 40.8219 -72.8669 30° Northeast  Level Estimated
06:23PM 40.8219 -72.8669 30° Northeast  Level Estimated
06:24PM 40.8219 -72.8669 30° Northeast  Level Estimated